sensor_id;sensor_type;location;lat;lon;timestamp;P1;durP1;ratioP1;P2;durP2;ratioP2
47844;SDS011;33605;48.822;8.796;2023-03-01T00:00:38;25.67;;;15.47;;
47844;SDS011;33605;48.822;8.796;2023-03-01T00:03:04;22.77;;;13.40;;
47844;SDS011;33605;48.822;8.796;2023-03-01T00:05:30;20.53;;;13.20;;
47844;SDS011;33605;48.822;8.796;2023-03-01T00:07:55;21.73;;;14.27;;
47844;SDS011;33605;48.822;8.796;2023-03-01T00:10:21;20.27;;;13.20;;
47844;SDS011;33605;48.822;8.796;2023-03-01T00:12:47;19.03;;;12.07;;
47844;SDS011;33605;48.822;8.796;2023-03-01T00:15:12;16.93;;;12.07;;
47844;SDS011;33605;48.822;8.796;2023-03-01T00:17:38;19.47;;;13.03;;
47844;SDS011;33605;48.822;8.796;2023-03-01T00:20:04;18.43;;;12.67;;
47844;SDS011;33605;48.822;8.796;2023-03-01T00:22:35;21.77;;;12.97;;
47844;SDS011;33605;48.822;8.796;2023-03-01T00:25:03;19.57;;;13.43;;
47844;SDS011;33605;48.822;8.796;2023-03-01T00:27:29;17.73;;;12.50;;
47844;SDS011;33605;48.822;8.796;2023-03-01T00:29:55;20.13;;;12.70;;
47844;SDS011;33605;48.822;8.796;2023-03-01T00:32:20;24.40;;;12.70;;
47844;SDS011;33605;48.822;8.796;2023-03-01T00:34:46;19.73;;;12.40;;
47844;SDS011;33605;48.822;8.796;2023-03-01T00:37:19;16.80;;;11.60;;
47844;SDS011;33605;48.822;8.796;2023-03-01T00:39:46;18.57;;;12.07;;
47844;SDS011;33605;48.822;8.796;2023-03-01T00:42:11;24.90;;;14.63;;
47844;SDS011;33605;48.822;8.796;2023-03-01T00:44:37;22.57;;;12.77;;
47844;SDS011;33605;48.822;8.796;2023-03-01T00:47:02;22.30;;;13.43;;
47844;SDS011;33605;48.822;8.796;2023-03-01T00:49:28;20.30;;;13.87;;
47844;SDS011;33605;48.822;8.796;2023-03-01T00:51:54;18.77;;;12.57;;
47844;SDS011;33605;48.822;8.796;2023-03-01T00:54:19;18.57;;;12.07;;
47844;SDS011;33605;48.822;8.796;2023-03-01T00:56:45;22.90;;;12.80;;
47844;SDS011;33605;48.822;8.796;2023-03-01T00:59:10;20.07;;;14.47;;
47844;SDS011;33605;48.822;8.796;2023-03-01T01:01:36;18.70;;;12.47;;
47844;SDS011;33605;48.822;8.796;2023-03-01T01:04:03;20.40;;;12.63;;
47844;SDS011;33605;48.822;8.796;2023-03-01T01:06:38;20.90;;;13.77;;
47844;SDS011;33605;48.822;8.796;2023-03-01T01:09:09;20.53;;;13.50;;
47844;SDS011;33605;48.822;8.796;2023-03-01T01:11:43;19.80;;;12.60;;
47844;SDS011;33605;48.822;8.796;2023-03-01T01:14:10;22.00;;;15.50;;
47844;SDS011;33605;48.822;8.796;2023-03-01T01:16:36;20.83;;;12.90;;
47844;SDS011;33605;48.822;8.796;2023-03-01T01:19:03;21.57;;;13.80;;
47844;SDS011;33605;48.822;8.796;2023-03-01T01:21:29;17.07;;;12.50;;
47844;SDS011;33605;48.822;8.796;2023-03-01T01:23:54;21.10;;;14.13;;
47844;SDS011;33605;48.822;8.796;2023-03-01T01:26:38;23.27;;;13.10;;
47844;SDS011;33605;48.822;8.796;2023-03-01T01:29:05;19.13;;;12.37;;
47844;SDS011;33605;48.822;8.796;2023-03-01T01:31:32;19.23;;;12.13;;
47844;SDS011;33605;48.822;8.796;2023-03-01T01:33:59;20.83;;;12.80;;
47844;SDS011;33605;48.822;8.796;2023-03-01T01:36:26;18.27;;;13.50;;
47844;SDS011;33605;48.822;8.796;2023-03-01T01:38:52;20.00;;;13.60;;
47844;SDS011;33605;48.822;8.796;2023-03-01T01:41:18;20.40;;;13.60;;
47844;SDS011;33605;48.822;8.796;2023-03-01T01:43:45;14.50;;;10.63;;
47844;SDS011;33605;48.822;8.796;2023-03-01T01:46:19;19.00;;;13.70;;
47844;SDS011;33605;48.822;8.796;2023-03-01T01:48:57;18.27;;;12.03;;
47844;SDS011;33605;48.822;8.796;2023-03-01T01:51:29;23.00;;;12.73;;
47844;SDS011;33605;48.822;8.796;2023-03-01T01:54:03;21.63;;;13.97;;
47844;SDS011;33605;48.822;8.796;2023-03-01T01:56:35;19.27;;;12.60;;
47844;SDS011;33605;48.822;8.796;2023-03-01T01:59:02;23.37;;;14.40;;
47844;SDS011;33605;48.822;8.796;2023-03-01T02:01:28;21.73;;;13.67;;
47844;SDS011;33605;48.822;8.796;2023-03-01T02:03:53;20.57;;;13.37;;
47844;SDS011;33605;48.822;8.796;2023-03-01T02:06:29;19.27;;;12.37;;
47844;SDS011;33605;48.822;8.796;2023-03-01T02:09:07;19.77;;;12.50;;
47844;SDS011;33605;48.822;8.796;2023-03-01T02:11:41;19.10;;;12.43;;
47844;SDS011;33605;48.822;8.796;2023-03-01T02:14:08;23.63;;;13.80;;
47844;SDS011;33605;48.822;8.796;2023-03-01T02:16:34;18.63;;;12.70;;
47844;SDS011;33605;48.822;8.796;2023-03-01T02:19:00;19.43;;;12.80;;
47844;SDS011;33605;48.822;8.796;2023-03-01T02:21:31;16.47;;;13.63;;
47844;SDS011;33605;48.822;8.796;2023-03-01T02:24:14;23.57;;;13.43;;
47844;SDS011;33605;48.822;8.796;2023-03-01T02:26:56;26.20;;;13.63;;
47844;SDS011;33605;48.822;8.796;2023-03-01T02:29:23;28.93;;;15.77;;
47844;SDS011;33605;48.822;8.796;2023-03-01T02:31:49;25.03;;;15.83;;
47844;SDS011;33605;48.822;8.796;2023-03-01T02:34:21;32.07;;;16.97;;
47844;SDS011;33605;48.822;8.796;2023-03-01T02:39:35;23.70;;;14.33;;
47844;SDS011;33605;48.822;8.796;2023-03-01T02:42:07;23.60;;;13.90;;
47844;SDS011;33605;48.822;8.796;2023-03-01T02:44:37;21.30;;;13.80;;
47844;SDS011;33605;48.822;8.796;2023-03-01T02:47:03;26.47;;;15.67;;
47844;SDS011;33605;48.822;8.796;2023-03-01T02:49:32;24.47;;;15.80;;
47844;SDS011;33605;48.822;8.796;2023-03-01T02:57:24;20.90;;;14.80;;
47844;SDS011;33605;48.822;8.796;2023-03-01T02:59:52;22.57;;;14.77;;
47844;SDS011;33605;48.822;8.796;2023-03-01T03:02:20;23.13;;;14.00;;
47844;SDS011;33605;48.822;8.796;2023-03-01T03:07:31;20.50;;;13.97;;
47844;SDS011;33605;48.822;8.796;2023-03-01T03:09:58;23.07;;;14.57;;
47844;SDS011;33605;48.822;8.796;2023-03-01T03:12:23;24.80;;;14.13;;
47844;SDS011;33605;48.822;8.796;2023-03-01T03:14:49;25.13;;;13.40;;
47844;SDS011;33605;48.822;8.796;2023-03-01T03:17:15;24.20;;;14.87;;
47844;SDS011;33605;48.822;8.796;2023-03-01T03:19:40;26.10;;;16.27;;
47844;SDS011;33605;48.822;8.796;2023-03-01T03:22:06;31.10;;;16.13;;
47844;SDS011;33605;48.822;8.796;2023-03-01T03:24:33;24.30;;;16.03;;
47844;SDS011;33605;48.822;8.796;2023-03-01T03:27:03;22.87;;;14.17;;
47844;SDS011;33605;48.822;8.796;2023-03-01T03:29:30;25.43;;;14.20;;
47844;SDS011;33605;48.822;8.796;2023-03-01T03:31:55;20.93;;;13.97;;
47844;SDS011;33605;48.822;8.796;2023-03-01T03:34:21;20.43;;;13.57;;
47844;SDS011;33605;48.822;8.796;2023-03-01T03:36:47;23.10;;;13.83;;
47844;SDS011;33605;48.822;8.796;2023-03-01T03:39:12;17.80;;;13.23;;
47844;SDS011;33605;48.822;8.796;2023-03-01T03:41:38;23.20;;;14.47;;
47844;SDS011;33605;48.822;8.796;2023-03-01T03:44:03;24.23;;;15.00;;
47844;SDS011;33605;48.822;8.796;2023-03-01T03:46:29;21.17;;;13.40;;
47844;SDS011;33605;48.822;8.796;2023-03-01T03:48:55;23.80;;;13.60;;
47844;SDS011;33605;48.822;8.796;2023-03-01T03:51:20;23.10;;;14.33;;
47844;SDS011;33605;48.822;8.796;2023-03-01T03:53:47;18.60;;;12.93;;
47844;SDS011;33605;48.822;8.796;2023-03-01T03:56:13;22.30;;;13.20;;
47844;SDS011;33605;48.822;8.796;2023-03-01T03:58:39;19.40;;;12.43;;
47844;SDS011;33605;48.822;8.796;2023-03-01T04:01:06;19.10;;;13.17;;
47844;SDS011;33605;48.822;8.796;2023-03-01T04:03:32;21.10;;;11.97;;
47844;SDS011;33605;48.822;8.796;2023-03-01T04:05:59;20.90;;;13.40;;
47844;SDS011;33605;48.822;8.796;2023-03-01T04:08:26;18.23;;;12.43;;
47844;SDS011;33605;48.822;8.796;2023-03-01T04:10:56;20.70;;;13.90;;
47844;SDS011;33605;48.822;8.796;2023-03-01T04:13:24;18.60;;;12.63;;
47844;SDS011;33605;48.822;8.796;2023-03-01T04:15:50;21.17;;;14.07;;
47844;SDS011;33605;48.822;8.796;2023-03-01T04:18:18;19.90;;;12.20;;
47844;SDS011;33605;48.822;8.796;2023-03-01T04:20:46;19.90;;;13.73;;
47844;SDS011;33605;48.822;8.796;2023-03-01T04:23:16;20.83;;;14.07;;
47844;SDS011;33605;48.822;8.796;2023-03-01T04:28:18;18.40;;;13.00;;
47844;SDS011;33605;48.822;8.796;2023-03-01T04:30:49;22.00;;;13.93;;
47844;SDS011;33605;48.822;8.796;2023-03-01T04:33:16;21.17;;;14.67;;
47844;SDS011;33605;48.822;8.796;2023-03-01T04:35:42;18.57;;;12.67;;
47844;SDS011;33605;48.822;8.796;2023-03-01T04:38:08;24.87;;;15.10;;
47844;SDS011;33605;48.822;8.796;2023-03-01T04:40:34;19.90;;;12.87;;
47844;SDS011;33605;48.822;8.796;2023-03-01T04:43:00;25.17;;;13.70;;
47844;SDS011;33605;48.822;8.796;2023-03-01T04:45:27;20.33;;;13.63;;
47844;SDS011;33605;48.822;8.796;2023-03-01T04:47:53;25.80;;;15.63;;
47844;SDS011;33605;48.822;8.796;2023-03-01T04:50:18;22.53;;;13.23;;
47844;SDS011;33605;48.822;8.796;2023-03-01T04:52:48;25.53;;;15.10;;
47844;SDS011;33605;48.822;8.796;2023-03-01T04:55:15;27.90;;;14.90;;
47844;SDS011;33605;48.822;8.796;2023-03-01T04:57:41;24.50;;;14.73;;
47844;SDS011;33605;48.822;8.796;2023-03-01T05:00:07;23.30;;;15.77;;
47844;SDS011;33605;48.822;8.796;2023-03-01T05:02:55;22.90;;;14.13;;
47844;SDS011;33605;48.822;8.796;2023-03-01T05:05:23;22.67;;;14.73;;
47844;SDS011;33605;48.822;8.796;2023-03-01T05:07:58;25.97;;;15.10;;
47844;SDS011;33605;48.822;8.796;2023-03-01T05:10:26;20.83;;;14.53;;
47844;SDS011;33605;48.822;8.796;2023-03-01T05:12:54;21.10;;;13.87;;
47844;SDS011;33605;48.822;8.796;2023-03-01T05:15:22;21.13;;;14.63;;
47844;SDS011;33605;48.822;8.796;2023-03-01T05:17:50;21.73;;;14.57;;
47844;SDS011;33605;48.822;8.796;2023-03-01T05:20:16;23.63;;;15.70;;
47844;SDS011;33605;48.822;8.796;2023-03-01T05:22:42;21.10;;;14.87;;
47844;SDS011;33605;48.822;8.796;2023-03-01T05:25:08;22.10;;;14.87;;
47844;SDS011;33605;48.822;8.796;2023-03-01T05:27:34;23.43;;;14.67;;
47844;SDS011;33605;48.822;8.796;2023-03-01T05:30:00;23.83;;;15.93;;
47844;SDS011;33605;48.822;8.796;2023-03-01T05:32:38;24.93;;;15.73;;
47844;SDS011;33605;48.822;8.796;2023-03-01T05:35:15;25.87;;;16.40;;
47844;SDS011;33605;48.822;8.796;2023-03-01T05:37:42;24.50;;;15.00;;
47844;SDS011;33605;48.822;8.796;2023-03-01T05:40:12;26.70;;;15.73;;
47844;SDS011;33605;48.822;8.796;2023-03-01T05:42:47;23.13;;;14.90;;
47844;SDS011;33605;48.822;8.796;2023-03-01T05:45:14;26.60;;;16.27;;
47844;SDS011;33605;48.822;8.796;2023-03-01T05:47:41;25.40;;;16.10;;
47844;SDS011;33605;48.822;8.796;2023-03-01T05:50:31;27.37;;;17.10;;
47844;SDS011;33605;48.822;8.796;2023-03-01T05:53:29;25.00;;;15.80;;
47844;SDS011;33605;48.822;8.796;2023-03-01T05:55:48;22.67;;;15.30;;
47844;SDS011;33605;48.822;8.796;2023-03-01T05:58:15;29.73;;;17.67;;
47844;SDS011;33605;48.822;8.796;2023-03-01T06:00:43;27.87;;;18.43;;
47844;SDS011;33605;48.822;8.796;2023-03-01T06:03:10;25.63;;;16.13;;
47844;SDS011;33605;48.822;8.796;2023-03-01T06:05:37;25.83;;;16.90;;
47844;SDS011;33605;48.822;8.796;2023-03-01T06:08:04;24.73;;;16.70;;
47844;SDS011;33605;48.822;8.796;2023-03-01T06:10:30;28.47;;;17.90;;
47844;SDS011;33605;48.822;8.796;2023-03-01T06:12:56;28.60;;;17.50;;
47844;SDS011;33605;48.822;8.796;2023-03-01T06:15:22;27.70;;;18.57;;
47844;SDS011;33605;48.822;8.796;2023-03-01T06:17:48;26.03;;;17.20;;
47844;SDS011;33605;48.822;8.796;2023-03-01T06:20:21;24.27;;;16.70;;
47844;SDS011;33605;48.822;8.796;2023-03-01T06:22:48;27.07;;;16.63;;
47844;SDS011;33605;48.822;8.796;2023-03-01T06:25:15;24.67;;;17.00;;
47844;SDS011;33605;48.822;8.796;2023-03-01T06:27:42;24.27;;;16.50;;
47844;SDS011;33605;48.822;8.796;2023-03-01T06:30:09;26.07;;;18.10;;
47844;SDS011;33605;48.822;8.796;2023-03-01T06:32:36;31.30;;;18.40;;
47844;SDS011;33605;48.822;8.796;2023-03-01T06:35:03;24.07;;;15.53;;
47844;SDS011;33605;48.822;8.796;2023-03-01T06:37:29;27.63;;;16.67;;
47844;SDS011;33605;48.822;8.796;2023-03-01T06:39:55;28.50;;;16.90;;
47844;SDS011;33605;48.822;8.796;2023-03-01T06:42:20;27.23;;;19.00;;
47844;SDS011;33605;48.822;8.796;2023-03-01T06:44:46;25.53;;;16.03;;
47844;SDS011;33605;48.822;8.796;2023-03-01T06:47:12;32.07;;;18.73;;
47844;SDS011;33605;48.822;8.796;2023-03-01T06:49:37;29.23;;;18.37;;
47844;SDS011;33605;48.822;8.796;2023-03-01T06:52:03;23.43;;;15.50;;
47844;SDS011;33605;48.822;8.796;2023-03-01T06:54:29;25.60;;;16.77;;
47844;SDS011;33605;48.822;8.796;2023-03-01T06:56:54;26.87;;;16.67;;
47844;SDS011;33605;48.822;8.796;2023-03-01T06:59:20;24.13;;;15.70;;
47844;SDS011;33605;48.822;8.796;2023-03-01T07:01:46;28.00;;;17.30;;
47844;SDS011;33605;48.822;8.796;2023-03-01T07:04:12;44.73;;;28.13;;
47844;SDS011;33605;48.822;8.796;2023-03-01T07:06:38;105.67;;;58.13;;
47844;SDS011;33605;48.822;8.796;2023-03-01T07:09:04;47.03;;;26.77;;
47844;SDS011;33605;48.822;8.796;2023-03-01T07:11:29;54.80;;;35.60;;
47844;SDS011;33605;48.822;8.796;2023-03-01T07:13:55;37.23;;;23.50;;
47844;SDS011;33605;48.822;8.796;2023-03-01T07:16:21;29.50;;;18.50;;
47844;SDS011;33605;48.822;8.796;2023-03-01T07:18:46;63.70;;;36.67;;
47844;SDS011;33605;48.822;8.796;2023-03-01T07:21:13;71.17;;;42.63;;
47844;SDS011;33605;48.822;8.796;2023-03-01T07:23:40;139.27;;;86.23;;
47844;SDS011;33605;48.822;8.796;2023-03-01T07:26:05;48.97;;;33.50;;
47844;SDS011;33605;48.822;8.796;2023-03-01T07:28:31;43.43;;;28.67;;
47844;SDS011;33605;48.822;8.796;2023-03-01T07:31:04;30.70;;;19.13;;
47844;SDS011;33605;48.822;8.796;2023-03-01T07:33:32;29.03;;;19.70;;
47844;SDS011;33605;48.822;8.796;2023-03-01T07:35:58;33.00;;;24.73;;
47844;SDS011;33605;48.822;8.796;2023-03-01T07:38:26;27.73;;;16.57;;
47844;SDS011;33605;48.822;8.796;2023-03-01T07:40:52;31.97;;;21.57;;
47844;SDS011;33605;48.822;8.796;2023-03-01T07:43:18;28.73;;;18.87;;
47844;SDS011;33605;48.822;8.796;2023-03-01T07:45:44;28.37;;;19.50;;
47844;SDS011;33605;48.822;8.796;2023-03-01T07:48:10;31.40;;;19.53;;
47844;SDS011;33605;48.822;8.796;2023-03-01T07:50:35;28.63;;;18.30;;
47844;SDS011;33605;48.822;8.796;2023-03-01T07:53:01;34.53;;;20.77;;
47844;SDS011;33605;48.822;8.796;2023-03-01T07:55:27;23.93;;;16.60;;
47844;SDS011;33605;48.822;8.796;2023-03-01T07:57:53;31.60;;;19.10;;
47844;SDS011;33605;48.822;8.796;2023-03-01T08:00:18;31.60;;;18.47;;
47844;SDS011;33605;48.822;8.796;2023-03-01T08:02:45;29.37;;;19.37;;
47844;SDS011;33605;48.822;8.796;2023-03-01T08:05:11;27.73;;;18.63;;
47844;SDS011;33605;48.822;8.796;2023-03-01T08:07:36;27.33;;;18.80;;
47844;SDS011;33605;48.822;8.796;2023-03-01T08:10:02;29.57;;;18.83;;
47844;SDS011;33605;48.822;8.796;2023-03-01T08:12:28;26.33;;;17.90;;
47844;SDS011;33605;48.822;8.796;2023-03-01T08:14:54;29.90;;;18.90;;
47844;SDS011;33605;48.822;8.796;2023-03-01T08:17:20;29.17;;;17.70;;
47844;SDS011;33605;48.822;8.796;2023-03-01T08:19:45;28.10;;;17.30;;
47844;SDS011;33605;48.822;8.796;2023-03-01T08:22:11;28.50;;;18.27;;
47844;SDS011;33605;48.822;8.796;2023-03-01T08:24:37;33.77;;;18.97;;
47844;SDS011;33605;48.822;8.796;2023-03-01T08:27:03;25.10;;;17.27;;
47844;SDS011;33605;48.822;8.796;2023-03-01T08:29:33;36.43;;;18.27;;
47844;SDS011;33605;48.822;8.796;2023-03-01T08:31:59;25.60;;;17.40;;
47844;SDS011;33605;48.822;8.796;2023-03-01T08:34:24;26.90;;;18.50;;
47844;SDS011;33605;48.822;8.796;2023-03-01T08:36:50;28.27;;;18.13;;
47844;SDS011;33605;48.822;8.796;2023-03-01T08:39:17;32.97;;;18.37;;
47844;SDS011;33605;48.822;8.796;2023-03-01T08:41:45;27.63;;;18.17;;
47844;SDS011;33605;48.822;8.796;2023-03-01T08:44:11;24.93;;;17.80;;
47844;SDS011;33605;48.822;8.796;2023-03-01T08:46:39;28.07;;;17.80;;
47844;SDS011;33605;48.822;8.796;2023-03-01T08:49:11;34.43;;;20.47;;
47844;SDS011;33605;48.822;8.796;2023-03-01T08:51:38;33.20;;;18.27;;
47844;SDS011;33605;48.822;8.796;2023-03-01T08:54:05;30.97;;;18.70;;
47844;SDS011;33605;48.822;8.796;2023-03-01T08:56:32;32.37;;;20.90;;
47844;SDS011;33605;48.822;8.796;2023-03-01T08:58:58;31.77;;;19.93;;
47844;SDS011;33605;48.822;8.796;2023-03-01T09:01:24;30.93;;;19.50;;
47844;SDS011;33605;48.822;8.796;2023-03-01T09:03:50;26.60;;;18.60;;
47844;SDS011;33605;48.822;8.796;2023-03-01T09:06:16;26.10;;;17.70;;
47844;SDS011;33605;48.822;8.796;2023-03-01T09:08:44;30.63;;;19.50;;
47844;SDS011;33605;48.822;8.796;2023-03-01T09:11:13;25.60;;;17.57;;
47844;SDS011;33605;48.822;8.796;2023-03-01T09:13:41;49.83;;;22.40;;
47844;SDS011;33605;48.822;8.796;2023-03-01T09:16:07;36.27;;;19.27;;
47844;SDS011;33605;48.822;8.796;2023-03-01T09:18:34;26.97;;;20.10;;
47844;SDS011;33605;48.822;8.796;2023-03-01T09:21:08;32.97;;;20.63;;
47844;SDS011;33605;48.822;8.796;2023-03-01T09:23:35;27.70;;;18.27;;
47844;SDS011;33605;48.822;8.796;2023-03-01T09:26:03;28.90;;;19.07;;
47844;SDS011;33605;48.822;8.796;2023-03-01T09:28:29;32.23;;;20.90;;
47844;SDS011;33605;48.822;8.796;2023-03-01T09:30:59;28.23;;;17.33;;
47844;SDS011;33605;48.822;8.796;2023-03-01T09:33:26;28.20;;;20.10;;
47844;SDS011;33605;48.822;8.796;2023-03-01T09:35:58;26.53;;;18.90;;
47844;SDS011;33605;48.822;8.796;2023-03-01T09:38:25;27.87;;;19.47;;
47844;SDS011;33605;48.822;8.796;2023-03-01T09:40:51;29.87;;;19.60;;
47844;SDS011;33605;48.822;8.796;2023-03-01T09:43:26;27.10;;;19.00;;
47844;SDS011;33605;48.822;8.796;2023-03-01T09:45:55;33.03;;;21.37;;
47844;SDS011;33605;48.822;8.796;2023-03-01T09:48:24;29.07;;;21.13;;
47844;SDS011;33605;48.822;8.796;2023-03-01T09:50:51;27.80;;;18.63;;
47844;SDS011;33605;48.822;8.796;2023-03-01T09:53:21;28.17;;;19.47;;
47844;SDS011;33605;48.822;8.796;2023-03-01T10:02:21;25.40;;;18.40;;
47844;SDS011;33605;48.822;8.796;2023-03-01T10:04:17;27.90;;;20.77;;
47844;SDS011;33605;48.822;8.796;2023-03-01T10:07:07;27.93;;;18.40;;
47844;SDS011;33605;48.822;8.796;2023-03-01T10:09:40;32.90;;;19.80;;
47844;SDS011;33605;48.822;8.796;2023-03-01T10:12:14;24.70;;;17.57;;
47844;SDS011;33605;48.822;8.796;2023-03-01T10:14:50;35.00;;;20.30;;
47844;SDS011;33605;48.822;8.796;2023-03-01T10:17:30;29.87;;;20.10;;
47844;SDS011;33605;48.822;8.796;2023-03-01T10:20:16;28.83;;;20.53;;
47844;SDS011;33605;48.822;8.796;2023-03-01T10:22:42;28.87;;;19.00;;
47844;SDS011;33605;48.822;8.796;2023-03-01T10:25:14;27.30;;;18.63;;
47844;SDS011;33605;48.822;8.796;2023-03-01T10:32:54;28.37;;;20.00;;
47844;SDS011;33605;48.822;8.796;2023-03-01T10:35:28;27.50;;;20.43;;
47844;SDS011;33605;48.822;8.796;2023-03-01T10:40:23;29.97;;;18.63;;
47844;SDS011;33605;48.822;8.796;2023-03-01T10:42:49;31.23;;;18.30;;
47844;SDS011;33605;48.822;8.796;2023-03-01T10:47:45;30.00;;;19.30;;
47844;SDS011;33605;48.822;8.796;2023-03-01T10:50:21;25.80;;;18.93;;
47844;SDS011;33605;48.822;8.796;2023-03-01T10:52:58;25.40;;;19.13;;
47844;SDS011;33605;48.822;8.796;2023-03-01T10:55:31;28.37;;;19.40;;
47844;SDS011;33605;48.822;8.796;2023-03-01T10:58:11;27.60;;;19.73;;
47844;SDS011;33605;48.822;8.796;2023-03-01T11:00:52;31.10;;;19.27;;
47844;SDS011;33605;48.822;8.796;2023-03-01T11:03:23;25.80;;;18.90;;
47844;SDS011;33605;48.822;8.796;2023-03-01T11:06:00;23.50;;;18.80;;
47844;SDS011;33605;48.822;8.796;2023-03-01T11:08:37;29.70;;;19.50;;
47844;SDS011;33605;48.822;8.796;2023-03-01T11:11:04;26.70;;;17.83;;
47844;SDS011;33605;48.822;8.796;2023-03-01T11:13:31;26.10;;;19.40;;
47844;SDS011;33605;48.822;8.796;2023-03-01T11:15:58;23.37;;;18.37;;
47844;SDS011;33605;48.822;8.796;2023-03-01T11:18:24;25.30;;;17.77;;
47844;SDS011;33605;48.822;8.796;2023-03-01T11:20:51;24.23;;;17.80;;
47844;SDS011;33605;48.822;8.796;2023-03-01T11:23:17;26.97;;;20.60;;
47844;SDS011;33605;48.822;8.796;2023-03-01T11:25:47;27.13;;;19.73;;
47844;SDS011;33605;48.822;8.796;2023-03-01T11:28:16;24.30;;;19.47;;
47844;SDS011;33605;48.822;8.796;2023-03-01T11:33:19;25.93;;;19.23;;
47844;SDS011;33605;48.822;8.796;2023-03-01T11:36:00;25.80;;;19.80;;
47844;SDS011;33605;48.822;8.796;2023-03-01T11:38:28;27.50;;;19.70;;
47844;SDS011;33605;48.822;8.796;2023-03-01T11:59:34;26.10;;;18.67;;
47844;SDS011;33605;48.822;8.796;2023-03-01T12:02:33;24.40;;;17.60;;
47844;SDS011;33605;48.822;8.796;2023-03-01T12:10:29;21.43;;;17.90;;
47844;SDS011;33605;48.822;8.796;2023-03-01T12:25:36;23.13;;;19.87;;
47844;SDS011;33605;48.822;8.796;2023-03-01T12:33:31;22.13;;;17.57;;
47844;SDS011;33605;48.822;8.796;2023-03-01T12:38:55;25.10;;;18.57;;
47844;SDS011;33605;48.822;8.796;2023-03-01T12:44:08;24.20;;;16.80;;
47844;SDS011;33605;48.822;8.796;2023-03-01T12:46:46;20.07;;;16.40;;
47844;SDS011;33605;48.822;8.796;2023-03-01T12:51:51;22.90;;;17.47;;
47844;SDS011;33605;48.822;8.796;2023-03-01T12:54:29;22.00;;;18.10;;
47844;SDS011;33605;48.822;8.796;2023-03-01T12:56:56;23.97;;;18.90;;
47844;SDS011;33605;48.822;8.796;2023-03-01T13:02:35;24.90;;;16.90;;
47844;SDS011;33605;48.822;8.796;2023-03-01T13:07:29;22.50;;;16.77;;
47844;SDS011;33605;48.822;8.796;2023-03-01T13:13:00;25.67;;;18.33;;
47844;SDS011;33605;48.822;8.796;2023-03-01T13:15:32;25.63;;;17.53;;
47844;SDS011;33605;48.822;8.796;2023-03-01T13:17:59;22.23;;;17.40;;
47844;SDS011;33605;48.822;8.796;2023-03-01T13:20:27;21.30;;;17.97;;
47844;SDS011;33605;48.822;8.796;2023-03-01T13:23:00;20.20;;;16.90;;
47844;SDS011;33605;48.822;8.796;2023-03-01T13:25:26;27.57;;;18.93;;
47844;SDS011;33605;48.822;8.796;2023-03-01T13:27:52;22.90;;;19.37;;
47844;SDS011;33605;48.822;8.796;2023-03-01T13:30:40;26.40;;;19.13;;
47844;SDS011;33605;48.822;8.796;2023-03-01T13:35:51;23.00;;;18.87;;
47844;SDS011;33605;48.822;8.796;2023-03-01T13:41:02;26.80;;;19.53;;
47844;SDS011;33605;48.822;8.796;2023-03-01T13:43:29;24.17;;;19.23;;
47844;SDS011;33605;48.822;8.796;2023-03-01T13:45:56;21.90;;;17.63;;
47844;SDS011;33605;48.822;8.796;2023-03-01T13:48:29;21.93;;;18.60;;
47844;SDS011;33605;48.822;8.796;2023-03-01T13:50:58;23.80;;;19.70;;
47844;SDS011;33605;48.822;8.796;2023-03-01T13:53:26;24.70;;;19.53;;
47844;SDS011;33605;48.822;8.796;2023-03-01T13:56:15;25.93;;;19.40;;
47844;SDS011;33605;48.822;8.796;2023-03-01T13:58:47;22.50;;;17.60;;
47844;SDS011;33605;48.822;8.796;2023-03-01T14:01:21;20.37;;;17.43;;
47844;SDS011;33605;48.822;8.796;2023-03-01T14:03:47;25.30;;;19.70;;
47844;SDS011;33605;48.822;8.796;2023-03-01T14:06:15;24.77;;;19.97;;
47844;SDS011;33605;48.822;8.796;2023-03-01T14:08:45;21.13;;;18.70;;
47844;SDS011;33605;48.822;8.796;2023-03-01T14:18:51;21.20;;;19.00;;
47844;SDS011;33605;48.822;8.796;2023-03-01T14:21:19;21.53;;;16.90;;
47844;SDS011;33605;48.822;8.796;2023-03-01T14:23:45;20.13;;;18.10;;
47844;SDS011;33605;48.822;8.796;2023-03-01T14:26:11;19.43;;;17.37;;
47844;SDS011;33605;48.822;8.796;2023-03-01T14:28:37;20.80;;;18.60;;
47844;SDS011;33605;48.822;8.796;2023-03-01T14:31:28;19.10;;;17.20;;
47844;SDS011;33605;48.822;8.796;2023-03-01T14:33:56;19.90;;;17.73;;
47844;SDS011;33605;48.822;8.796;2023-03-01T14:36:26;19.43;;;17.27;;
47844;SDS011;33605;48.822;8.796;2023-03-01T14:38:53;24.10;;;17.57;;
47844;SDS011;33605;48.822;8.796;2023-03-01T14:41:23;19.27;;;17.37;;
47844;SDS011;33605;48.822;8.796;2023-03-01T14:43:56;18.43;;;16.43;;
47844;SDS011;33605;48.822;8.796;2023-03-01T14:46:28;18.20;;;16.30;;
47844;SDS011;33605;48.822;8.796;2023-03-01T14:48:56;18.20;;;16.47;;
47844;SDS011;33605;48.822;8.796;2023-03-01T14:51:24;19.83;;;17.90;;
47844;SDS011;33605;48.822;8.796;2023-03-01T14:53:50;17.30;;;15.60;;
47844;SDS011;33605;48.822;8.796;2023-03-01T14:56:16;17.47;;;15.77;;
47844;SDS011;33605;48.822;8.796;2023-03-01T14:58:43;17.77;;;16.07;;
47844;SDS011;33605;48.822;8.796;2023-03-01T15:01:13;16.37;;;14.77;;
47844;SDS011;33605;48.822;8.796;2023-03-01T15:03:41;18.47;;;16.67;;
47844;SDS011;33605;48.822;8.796;2023-03-01T15:06:09;18.80;;;16.90;;
47844;SDS011;33605;48.822;8.796;2023-03-01T15:08:35;19.70;;;17.70;;
47844;SDS011;33605;48.822;8.796;2023-03-01T15:11:16;18.17;;;16.47;;
47844;SDS011;33605;48.822;8.796;2023-03-01T15:13:43;16.90;;;15.10;;
47844;SDS011;33605;48.822;8.796;2023-03-01T15:16:44;20.07;;;15.30;;
47844;SDS011;33605;48.822;8.796;2023-03-01T15:19:04;17.50;;;15.80;;
47844;SDS011;33605;48.822;8.796;2023-03-01T15:21:31;18.63;;;16.83;;
47844;SDS011;33605;48.822;8.796;2023-03-01T15:24:20;20.93;;;18.73;;
47844;SDS011;33605;48.822;8.796;2023-03-01T15:26:45;19.43;;;17.50;;
47844;SDS011;33605;48.822;8.796;2023-03-01T15:29:16;19.83;;;17.20;;
47844;SDS011;33605;48.822;8.796;2023-03-01T15:31:43;18.70;;;16.77;;
47844;SDS011;33605;48.822;8.796;2023-03-01T15:34:23;18.93;;;16.30;;
47844;SDS011;33605;48.822;8.796;2023-03-01T15:36:50;19.80;;;17.80;;
47844;SDS011;33605;48.822;8.796;2023-03-01T15:40:17;18.97;;;16.60;;
47844;SDS011;33605;48.822;8.796;2023-03-01T15:45:09;18.73;;;16.73;;
47844;SDS011;33605;48.822;8.796;2023-03-01T15:47:35;19.83;;;17.67;;
47844;SDS011;33605;48.822;8.796;2023-03-01T15:50:01;18.50;;;16.50;;
47844;SDS011;33605;48.822;8.796;2023-03-01T15:55:00;19.03;;;16.83;;
47844;SDS011;33605;48.822;8.796;2023-03-01T15:57:27;19.57;;;17.57;;
47844;SDS011;33605;48.822;8.796;2023-03-01T15:59:53;19.53;;;17.50;;
47844;SDS011;33605;48.822;8.796;2023-03-01T16:02:19;21.13;;;18.03;;
47844;SDS011;33605;48.822;8.796;2023-03-01T16:04:46;19.67;;;17.57;;
47844;SDS011;33605;48.822;8.796;2023-03-01T16:07:13;20.27;;;16.40;;
47844;SDS011;33605;48.822;8.796;2023-03-01T16:09:39;19.37;;;17.37;;
47844;SDS011;33605;48.822;8.796;2023-03-01T16:12:08;18.70;;;16.70;;
47844;SDS011;33605;48.822;8.796;2023-03-01T16:14:35;22.17;;;18.53;;
47844;SDS011;33605;48.822;8.796;2023-03-01T16:17:01;19.50;;;16.90;;
47844;SDS011;33605;48.822;8.796;2023-03-01T16:19:27;20.73;;;17.57;;